Time;durP1;ratioP1;P1;durP2;ratioP2;P2;SDS_P1;SDS_P2;PMS_P1;PMS_P2;Temp;Humidity;BMP_temperature;BMP_pressure;BME280_temperature;BME280_humidity;BME280_pressure;Samples;Min_cycle;Max_cycle;Signal;HPM_P1;HPM_P2
2023/07/01 00:02:38;;;;;;;4.90;3.47;;;;;;;13.27;94.54;100288.16;6051400;28;20022;-65
2023/07/01 00:05:33;;;;;;;4.53;3.50;;;;;;;13.23;94.91;100283.34;6036336;28;20040;-65
2023/07/01 00:08:28;;;;;;;5.60;3.65;;;;;;;13.30;95.79;100286.97;6051412;28;20026;-65
2023/07/01 00:11:24;;;;;;;5.40;3.23;;;;;;;13.28;95.35;100281.00;6046523;28;20027;-66
2023/07/01 00:14:19;;;;;;;5.13;3.73;;;;;;;13.32;95.42;100291.13;6047398;28;20529;-66
2023/07/01 00:17:16;;;;;;;6.23;3.50;;;;;;;13.26;95.56;100296.34;6046531;28;20377;-66
2023/07/01 00:20:11;;;;;;;6.20;3.45;;;;;;;13.06;95.96;100275.41;6051247;28;20277;-66
2023/07/01 00:23:06;;;;;;;7.20;4.00;;;;;;;13.17;95.42;100284.03;6034934;28;20030;-66
2023/07/01 00:26:02;;;;;;;4.50;3.73;;;;;;;13.23;96.10;100286.84;6044640;28;20021;-66
2023/07/01 00:28:58;;;;;;;5.90;3.35;;;;;;;13.46;96.60;100279.72;6045033;28;20041;-66
2023/07/01 00:31:53;;;;;;;5.93;3.20;;;;;;;13.36;94.55;100249.00;6034857;28;20037;-65
2023/07/01 00:34:48;;;;;;;5.77;3.47;;;;;;;13.31;94.60;100260.19;6042073;28;20551;-65
2023/07/01 00:37:43;;;;;;;5.37;3.20;;;;;;;13.43;95.07;100260.59;6050777;28;20030;-66
2023/07/01 00:40:39;;;;;;;7.27;3.63;;;;;;;13.35;94.33;100257.97;6050563;28;20080;-66
2023/07/01 00:43:34;;;;;;;8.00;3.30;;;;;;;13.20;94.75;100267.72;6048268;28;20111;-66
2023/07/01 00:46:32;;;;;;;5.70;3.40;;;;;;;13.15;94.93;100278.06;6044997;28;20253;-65
2023/07/01 00:49:27;;;;;;;4.80;3.10;;;;;;;13.11;95.29;100259.78;6049350;28;20508;-66
2023/07/01 00:52:22;;;;;;;6.10;3.30;;;;;;;12.99;95.32;100255.78;6050252;28;20040;-66
2023/07/01 00:55:18;;;;;;;4.20;2.97;;;;;;;12.98;96.07;100254.16;6025924;28;20277;-66
2023/07/01 00:58:13;;;;;;;7.83;3.30;;;;;;;12.75;96.13;100215.97;6050513;28;20030;-66
2023/07/01 01:01:13;;;;;;;7.30;3.47;;;;;;;13.13;95.94;100240.16;6050250;28;20033;-67
2023/07/01 01:04:12;;;;;;;5.13;3.38;;;;;;;13.20;94.11;100238.44;6060836;28;20041;-65
2023/07/01 01:07:13;;;;;;;10.80;3.42;;;;;;;13.17;93.28;100230.78;6041150;28;20033;-66
2023/07/01 01:10:10;;;;;;;6.38;3.13;;;;;;;13.24;94.66;100248.56;6065448;28;20036;-66
2023/07/01 01:13:06;;;;;;;8.15;3.38;;;;;;;13.11;94.13;100225.16;6044763;28;20045;-66
2023/07/01 01:16:02;;;;;;;5.00;3.03;;;;;;;13.36;93.48;100233.84;6043534;28;20473;-66
2023/07/01 01:18:57;;;;;;;6.03;3.10;;;;;;;13.32;92.45;100221.03;6048797;28;20044;-66
2023/07/01 01:22:05;;;;;;;5.78;3.38;;;;;;;13.34;92.12;100230.53;6029785;28;20026;-65
2023/07/01 01:25:05;;;;;;;6.82;3.35;;;;;;;13.43;92.75;100225.97;6042257;28;20021;-66
2023/07/01 01:28:01;;;;;;;4.38;2.80;;;;;;;13.39;92.25;100228.19;6064839;28;20107;-65
2023/07/01 01:30:58;;;;;;;5.93;3.00;;;;;;;13.33;91.48;100214.72;6038934;28;20629;-66
2023/07/01 01:33:54;;;;;;;5.43;2.80;;;;;;;13.41;91.12;100226.16;6048950;28;20462;-66
2023/07/01 01:36:54;;;;;;;6.67;3.00;;;;;;;13.55;90.94;100219.25;6041429;28;20037;-65
2023/07/01 01:39:52;;;;;;;4.50;2.55;;;;;;;13.54;90.69;100217.56;6058992;28;20022;-65
2023/07/01 01:42:47;;;;;;;4.72;3.13;;;;;;;13.66;90.63;100210.84;6064560;28;20068;-65
2023/07/01 01:45:43;;;;;;;6.47;2.75;;;;;;;13.69;91.63;100213.16;6042814;28;20615;-66
2023/07/01 01:48:39;;;;;;;6.18;2.90;;;;;;;13.76;89.81;100208.75;6065084;28;20749;-64
2023/07/01 01:51:36;;;;;;;6.47;3.03;;;;;;;13.68;89.89;100214.97;6050275;28;20113;-66
2023/07/01 01:54:31;;;;;;;4.90;2.95;;;;;;;13.72;89.73;100188.81;6046652;28;20113;-66
2023/07/01 01:57:26;;;;;;;6.20;2.40;;;;;;;13.77;88.97;100183.78;6032838;28;20040;-66
2023/07/01 02:00:22;;;;;;;4.83;2.60;;;;;;;13.91;88.25;100190.97;6045207;28;20058;-66
2023/07/01 02:03:17;;;;;;;4.82;2.83;;;;;;;14.13;88.28;100178.63;6048350;28;20261;-66
2023/07/01 02:06:13;;;;;;;5.00;2.77;;;;;;;14.14;86.44;100181.09;6035859;28;20033;-65
2023/07/01 02:09:08;;;;;;;7.60;2.75;;;;;;;14.05;86.62;100171.50;6045500;28;20050;-66
2023/07/01 02:12:04;;;;;;;6.00;2.43;;;;;;;14.11;86.59;100175.28;6025899;28;20116;-65
2023/07/01 02:15:00;;;;;;;6.45;2.50;;;;;;;14.18;86.58;100166.41;6048823;28;20028;-65
2023/07/01 02:17:55;;;;;;;6.23;2.40;;;;;;;14.17;85.78;100159.38;6049472;28;20409;-66
2023/07/01 02:20:51;;;;;;;12.95;3.20;;;;;;;14.29;85.87;100157.91;6049465;28;20079;-66
2023/07/01 02:23:46;;;;;;;6.37;2.50;;;;;;;14.37;84.63;100158.88;6039932;28;20038;-66
2023/07/01 02:26:41;;;;;;;4.47;2.03;;;;;;;14.29;84.39;100144.56;6049459;28;20068;-65
2023/07/01 02:29:37;;;;;;;4.17;2.03;;;;;;;14.27;84.84;100159.94;6052928;28;20044;-66
2023/07/01 02:32:32;;;;;;;3.40;1.88;;;;;;;14.14;85.65;100143.75;6053594;28;20022;-66
2023/07/01 02:35:27;;;;;;;4.97;2.10;;;;;;;14.39;85.61;100151.50;6053209;28;20033;-66
2023/07/01 02:38:22;;;;;;;3.70;2.10;;;;;;;14.58;85.08;100145.63;6053433;28;20272;-65
2023/07/01 02:41:18;;;;;;;3.70;2.27;;;;;;;14.54;84.11;100144.34;6053437;28;20025;-65
2023/07/01 02:44:13;;;;;;;5.67;2.20;;;;;;;14.52;84.38;100146.34;6030338;28;20097;-64
2023/07/01 02:47:08;;;;;;;4.80;2.37;;;;;;;14.46;84.08;100141.78;6033593;28;20076;-64
2023/07/01 02:50:04;;;;;;;6.03;2.30;;;;;;;14.34;84.20;100124.56;6049634;28;20072;-65
2023/07/01 02:52:59;;;;;;;4.63;2.38;;;;;;;14.36;84.31;100136.72;6053091;28;20361;-64
2023/07/01 02:55:55;;;;;;;3.23;2.20;;;;;;;14.36;84.42;100127.88;6052806;28;20040;-65
2023/07/01 02:58:50;;;;;;;7.07;2.57;;;;;;;14.24;84.14;100111.50;6053237;28;20033;-65
2023/07/01 03:01:46;;;;;;;5.60;2.23;;;;;;;14.30;84.12;100118.75;6052797;28;20053;-65
2023/07/01 03:04:42;;;;;;;5.53;2.28;;;;;;;14.15;83.89;100097.41;6039681;28;20085;-65
2023/07/01 03:07:37;;;;;;;7.32;2.65;;;;;;;14.11;84.32;100097.94;6047746;28;20037;-65
2023/07/01 03:10:33;;;;;;;5.13;2.43;;;;;;;14.16;84.37;100112.38;6052507;28;20061;-64
2023/07/01 03:13:29;;;;;;;5.93;2.22;;;;;;;14.13;84.83;100115.41;6043900;28;20018;-65
2023/07/01 03:16:24;;;;;;;4.68;2.20;;;;;;;14.00;85.72;100104.56;6052634;28;20041;-65
2023/07/01 03:19:19;;;;;;;4.10;2.10;;;;;;;13.93;86.13;100095.66;6052554;28;20084;-65
2023/07/01 03:22:15;;;;;;;6.37;2.63;;;;;;;13.98;86.46;100103.94;6052235;28;20053;-65
2023/07/01 03:25:10;;;;;;;6.53;2.77;;;;;;;13.93;86.87;100101.00;6046857;28;20046;-65
2023/07/01 03:28:05;;;;;;;6.30;2.40;;;;;;;13.96;86.78;100103.28;6052461;28;20504;-64
2023/07/01 03:31:01;;;;;;;5.40;2.60;;;;;;;13.82;87.56;100084.63;6052118;28;20022;-65
2023/07/01 03:33:56;;;;;;;5.20;2.30;;;;;;;13.85;87.40;100085.09;6051530;28;20037;-65
2023/07/01 03:36:51;;;;;;;6.57;2.70;;;;;;;13.95;87.11;100095.47;6052035;28;20724;-65
2023/07/01 03:39:47;;;;;;;5.30;2.50;;;;;;;13.98;86.58;100084.44;6051047;28;20065;-65
2023/07/01 03:42:42;;;;;;;4.20;2.30;;;;;;;14.04;85.91;100084.53;6045261;28;20312;-65
2023/07/01 03:45:38;;;;;;;5.82;1.90;;;;;;;14.11;85.17;100074.78;6042425;28;20292;-64
2023/07/01 03:48:34;;;;;;;3.87;2.00;;;;;;;14.35;84.56;100081.69;6048193;28;20038;-64
2023/07/01 03:51:30;;;;;;;5.25;2.03;;;;;;;14.37;83.45;100062.84;6051544;28;20528;-64
2023/07/01 03:54:25;;;;;;;4.03;1.92;;;;;;;14.46;83.46;100072.41;6051306;28;20032;-65
2023/07/01 03:57:20;;;;;;;5.10;2.10;;;;;;;14.60;82.39;100063.53;6051325;28;20030;-65
2023/07/01 04:00:19;;;;;;;5.90;2.33;;;;;;;14.79;81.53;100069.09;6051450;28;20442;-65
2023/07/01 04:03:14;;;;;;;7.05;2.05;;;;;;;14.76;81.57;100064.13;6029343;28;20057;-65
2023/07/01 04:06:10;;;;;;;5.17;2.33;;;;;;;14.85;81.08;100062.19;6032760;28;20038;-65
2023/07/01 04:09:05;;;;;;;5.53;2.60;;;;;;;14.85;81.97;100056.84;6044563;28;20489;-65
2023/07/01 04:12:00;;;;;;;5.90;2.03;;;;;;;15.00;80.35;100054.13;6043092;28;20562;-66
2023/07/01 04:14:56;;;;;;;2.73;1.67;;;;;;;15.13;80.68;100068.44;6049136;28;20072;-65
2023/07/01 04:17:51;;;;;;;2.90;1.60;;;;;;;15.23;79.30;100058.25;6040595;28;20045;-65
2023/07/01 04:20:47;;;;;;;4.00;1.80;;;;;;;15.17;81.01;100048.31;6039468;28;20153;-66
2023/07/01 04:23:42;;;;;;;2.63;1.80;;;;;;;15.20;80.08;100041.75;6038450;28;20031;-64
2023/07/01 04:26:37;;;;;;;5.87;1.70;;;;;;;15.30;79.68;100035.06;6051605;28;20040;-65
2023/07/01 04:29:32;;;;;;;4.20;1.80;;;;;;;15.31;78.98;100036.72;6050926;28;20049;-65
2023/07/01 04:32:31;;;;;;;4.93;1.93;;;;;;;15.39;78.44;100022.41;6046353;28;20728;-65
2023/07/01 04:35:26;;;;;;;4.15;2.05;;;;;;;15.53;78.61;100031.38;6023913;28;20032;-64
2023/07/01 04:38:21;;;;;;;4.40;1.90;;;;;;;15.45;78.00;100022.47;6051074;28;20033;-66
2023/07/01 04:41:17;;;;;;;5.83;2.03;;;;;;;15.56;77.38;100026.47;6050650;28;20026;-65
2023/07/01 04:44:12;;;;;;;3.83;2.17;;;;;;;15.57;76.71;100011.28;6033858;28;20038;-65
2023/07/01 04:47:07;;;;;;;4.43;2.00;;;;;;;15.68;76.19;100010.72;6038233;28;20108;-65
2023/07/01 04:50:02;;;;;;;3.50;1.63;;;;;;;15.69;76.87;100017.69;6050344;28;20449;-64
2023/07/01 04:52:58;;;;;;;4.07;2.10;;;;;;;15.59;77.09;100001.19;6050285;28;20056;-66
2023/07/01 04:55:53;;;;;;;8.70;2.17;;;;;;;15.76;76.21;100008.69;6049733;28;20260;-65
2023/07/01 04:58:48;;;;;;;5.13;2.20;;;;;;;15.69;76.58;100002.50;6050484;28;20021;-65
2023/07/01 05:01:44;;;;;;;3.47;2.33;;;;;;;15.90;76.50;100015.78;6036173;28;20037;-65
2023/07/01 05:04:39;;;;;;;6.23;2.13;;;;;;;15.89;76.21;99989.25;6041199;28;20532;-65
2023/07/01 05:07:35;;;;;;;7.40;2.08;;;;;;;15.89;75.09;99986.56;6045341;28;20283;-65
2023/07/01 05:10:31;;;;;;;3.88;2.08;;;;;;;15.92;75.56;99988.84;6036015;28;20092;-64
2023/07/01 05:13:26;;;;;;;6.20;1.90;;;;;;;16.09;74.71;99992.81;6027129;28;20030;-64
2023/07/01 05:16:21;;;;;;;3.53;2.00;;;;;;;16.14;73.97;99985.06;6050151;28;20029;-66
2023/07/01 05:19:16;;;;;;;5.07;1.93;;;;;;;15.98;74.21;99970.16;6048248;28;20099;-65
2023/07/01 05:22:12;;;;;;;5.93;2.00;;;;;;;16.09;74.59;99988.31;6045278;28;20477;-66
2023/07/01 05:25:07;;;;;;;5.97;2.17;;;;;;;16.12;73.78;99971.03;6049236;28;20025;-65
2023/07/01 05:28:03;;;;;;;4.05;1.90;;;;;;;16.34;73.17;99969.88;6050146;28;20109;-65
2023/07/01 05:30:58;;;;;;;3.00;1.70;;;;;;;16.55;72.67;99972.44;6035425;28;20077;-66
2023/07/01 05:33:53;;;;;;;3.63;1.73;;;;;;;16.62;72.10;99973.28;6044695;28;20088;-65
2023/07/01 05:36:49;;;;;;;4.13;1.90;;;;;;;16.47;72.69;99958.41;6049861;28;20029;-65
2023/07/01 05:39:45;;;;;;;6.22;2.88;;;;;;;16.64;72.48;99971.22;6049669;28;20080;-65
2023/07/01 05:42:40;;;;;;;5.37;1.80;;;;;;;16.62;72.64;99972.44;6049889;28;20037;-66
2023/07/01 05:45:35;;;;;;;5.03;1.70;;;;;;;16.70;72.38;99974.09;6020460;28;20034;-65
2023/07/01 05:48:30;;;;;;;4.90;1.90;;;;;;;16.73;72.61;99968.34;6038518;28;20269;-65
2023/07/01 05:51:26;;;;;;;8.03;1.80;;;;;;;16.60;72.39;99956.56;6041347;28;20780;-65
2023/07/01 05:54:21;;;;;;;2.90;1.90;;;;;;;16.58;72.58;99961.31;6033848;28;20108;-66
2023/07/01 05:57:18;;;;;;;7.80;2.17;;;;;;;16.63;72.96;99974.91;6045472;28;20035;-66
2023/07/01 06:00:14;;;;;;;7.05;1.90;;;;;;;16.80;71.61;99958.47;6025149;28;20034;-66
2023/07/01 06:03:11;;;;;;;5.00;1.65;;;;;;;17.08;70.71;99967.97;6028130;28;20040;-66
2023/07/01 06:06:06;;;;;;;3.53;1.65;;;;;;;17.18;70.06;99962.19;6040237;28;20088;-65
2023/07/01 06:09:02;;;;;;;5.70;1.83;;;;;;;17.30;70.43;99965.91;6054016;28;20116;-66
2023/07/01 06:11:57;;;;;;;6.97;1.92;;;;;;;17.35;69.71;99952.69;6046194;28;20033;-66
2023/07/01 06:14:53;;;;;;;5.68;1.92;;;;;;;17.72;68.69;99969.97;6053772;28;20033;-66
2023/07/01 06:17:48;;;;;;;4.90;1.60;;;;;;;18.07;66.44;99951.69;6053835;28;20117;-66
2023/07/01 06:20:43;;;;;;;4.63;1.90;;;;;;;17.73;67.25;99950.16;6054101;28;20021;-67
2023/07/01 06:23:39;;;;;;;3.80;1.63;;;;;;;17.79;67.46;99949.31;6053189;28;20064;-66
2023/07/01 06:26:34;;;;;;;7.90;1.77;;;;;;;17.82;67.41;99952.41;6036487;28;20027;-66
2023/07/01 06:29:29;;;;;;;3.83;1.70;;;;;;;17.75;66.98;99956.97;6053962;28;20087;-66
2023/07/01 06:32:24;;;;;;;5.00;1.80;;;;;;;17.96;66.27;99947.00;6053543;28;20480;-66
2023/07/01 06:35:20;;;;;;;6.63;2.33;;;;;;;17.64;68.38;99944.19;6053197;28;20035;-66
2023/07/01 06:38:15;;;;;;;5.17;2.00;;;;;;;17.65;67.55;99926.25;6053522;28;20112;-66
2023/07/01 06:41:10;;;;;;;6.57;1.80;;;;;;;17.31;68.95;99935.38;6033587;28;20435;-66
2023/07/01 06:44:06;;;;;;;2.87;1.70;;;;;;;17.66;68.40;99928.75;6053078;28;20412;-66
2023/07/01 06:47:01;;;;;;;4.83;1.77;;;;;;;17.30;69.33;99928.38;6042122;28;20026;-66
2023/07/01 06:49:56;;;;;;;6.23;2.07;;;;;;;17.46;68.78;99916.38;6048117;28;20058;-66
2023/07/01 06:52:51;;;;;;;3.83;1.70;;;;;;;17.36;69.69;99926.72;6053105;28;20034;-65
2023/07/01 06:55:47;;;;;;;8.37;2.03;;;;;;;17.38;69.67;99914.75;6043879;28;20521;-65
2023/07/01 06:58:42;;;;;;;3.03;1.73;;;;;;;17.41;69.60;99911.66;6053151;28;20068;-66
2023/07/01 07:01:37;;;;;;;3.53;1.67;;;;;;;17.35;70.10;99925.88;6054246;28;20257;-65
2023/07/01 07:04:33;;;;;;;5.53;1.87;;;;;;;17.54;70.32;99919.69;6045782;28;20019;-66
2023/07/01 07:07:28;;;;;;;3.83;1.70;;;;;;;17.51;70.11;99909.34;6042942;28;20053;-66
2023/07/01 07:10:23;;;;;;;5.27;1.87;;;;;;;17.53;70.85;99918.03;6041420;28;20384;-66
2023/07/01 07:13:18;;;;;;;3.20;1.70;;;;;;;18.01;69.39;99909.63;6040913;28;20121;-66
2023/07/01 07:16:15;;;;;;;6.23;2.00;;;;;;;18.43;67.20;99903.59;6052333;28;20021;-66
2023/07/01 07:19:10;;;;;;;7.38;1.52;;;;;;;18.20;68.06;99889.91;6050192;28;20037;-65
2023/07/01 07:22:05;;;;;;;5.23;1.90;;;;;;;18.45;66.91;99896.16;6027513;28;20034;-66
2023/07/01 07:25:01;;;;;;;6.25;1.85;;;;;;;18.61;66.04;99889.47;6032773;28;20458;-66
2023/07/01 07:27:56;;;;;;;5.43;2.10;;;;;;;18.67;66.86;99905.50;6040609;28;20064;-66
2023/07/01 07:30:51;;;;;;;4.47;2.13;;;;;;;18.35;67.57;99879.69;6051210;28;20037;-66
2023/07/01 07:33:47;;;;;;;5.97;1.90;;;;;;;18.45;68.29;99894.28;6032644;28;20113;-67
2023/07/01 07:36:43;;;;;;;3.17;1.90;;;;;;;18.33;67.31;99895.19;6037790;28;20103;-67
2023/07/01 07:39:38;;;;;;;5.93;1.85;;;;;;;18.25;67.03;99865.91;6051952;28;20065;-66
2023/07/01 07:42:34;;;;;;;6.23;2.10;;;;;;;18.17;68.12;99888.47;6051823;28;20372;-66
2023/07/01 07:45:30;;;;;;;3.40;1.92;;;;;;;18.32;67.15;99869.38;6051194;28;20350;-66
2023/07/01 07:48:25;;;;;;;2.50;1.77;;;;;;;18.24;66.01;99866.94;6039061;28;20041;-66
2023/07/01 07:51:20;;;;;;;3.07;1.70;;;;;;;18.34;66.80;99872.69;6027427;28;20070;-66
2023/07/01 07:54:16;;;;;;;6.90;1.80;;;;;;;18.31;66.83;99865.88;6051151;28;20462;-66
2023/07/01 07:57:12;;;;;;;4.38;1.73;;;;;;;18.39;66.19;99860.25;6051460;28;20057;-66
2023/07/01 08:00:08;;;;;;;5.22;1.80;;;;;;;18.23;67.04;99878.75;6051654;28;20076;-66
2023/07/01 08:03:04;;;;;;;4.90;2.00;;;;;;;18.39;65.75;99864.78;6051246;28;20022;-66
2023/07/01 08:06:00;;;;;;;6.63;2.47;;;;;;;18.32;65.80;99856.78;6034371;28;20181;-66
2023/07/01 08:08:55;;;;;;;5.20;1.80;;;;;;;18.31;66.02;99857.84;6030026;28;20041;-66
2023/07/01 08:11:50;;;;;;;2.63;1.70;;;;;;;18.56;66.47;99860.59;6038796;28;20035;-66
2023/07/01 08:14:46;;;;;;;6.17;2.10;;;;;;;18.50;65.64;99845.34;6051079;28;20030;-65
2023/07/01 08:17:41;;;;;;;4.10;1.90;;;;;;;18.93;64.95;99840.81;6051439;28;20388;-66
2023/07/01 08:20:38;;;;;;;3.90;1.80;;;;;;;18.78;65.18;99821.53;6051123;28;20022;-66
2023/07/01 08:23:33;;;;;;;5.45;1.60;;;;;;;18.87;64.19;99830.13;6044258;28;20030;-66
2023/07/01 08:26:28;;;;;;;3.10;1.53;;;;;;;19.10;63.80;99837.56;6050542;28;20084;-66
2023/07/01 08:29:24;;;;;;;4.63;1.93;;;;;;;19.17;63.41;99830.22;6051570;28;20026;-67
2023/07/01 08:32:19;;;;;;;5.90;1.88;;;;;;;19.15;64.39;99824.25;6051175;28;20479;-66
2023/07/01 08:35:14;;;;;;;3.87;1.83;;;;;;;19.41;63.48;99832.06;6043408;28;20029;-66
2023/07/01 08:38:10;;;;;;;2.75;1.90;;;;;;;19.22;64.37;99819.63;6051147;28;20022;-66
2023/07/01 08:41:09;;;;;;;4.50;1.90;;;;;;;19.27;63.92;99819.81;6050706;28;20141;-65
2023/07/01 08:44:05;;;;;;;3.15;1.70;;;;;;;19.45;63.56;99822.50;6035233;28;20038;-66
2023/07/01 08:47:01;;;;;;;5.53;2.17;;;;;;;19.46;64.35;99818.75;6051986;28;20113;-66
2023/07/01 08:49:58;;;;;;;3.92;1.80;;;;;;;19.49;62.56;99815.63;6040848;28;20030;-66
2023/07/01 08:53:00;;;;;;;5.72;1.90;;;;;;;19.45;64.14;99819.81;6060036;28;20030;-67
2023/07/01 08:55:56;;;;;;;3.72;1.90;;;;;;;19.45;63.69;99817.94;6040683;28;20389;-66
2023/07/01 08:58:51;;;;;;;3.42;1.67;;;;;;;19.66;62.58;99813.97;6050491;28;20108;-67
2023/07/01 09:01:47;;;;;;;6.93;1.93;;;;;;;19.75;63.44;99818.00;6050487;28;20030;-67
2023/07/01 09:04:43;;;;;;;5.68;1.92;;;;;;;19.81;62.26;99800.09;6041306;28;20278;-66
2023/07/01 09:07:40;;;;;;;2.83;1.60;;;;;;;19.94;62.02;99808.81;6031152;28;20109;-67
2023/07/01 09:10:36;;;;;;;5.07;2.08;;;;;;;19.83;63.43;99806.91;6051506;28;20420;-67
2023/07/01 09:13:32;;;;;;;3.63;1.40;;;;;;;19.53;64.93;99806.88;6041970;28;20029;-66
2023/07/01 09:16:37;;;;;;;6.00;1.80;;;;;;;19.39;68.96;99801.88;6049873;28;20269;-67
2023/07/01 09:19:32;;;;;;;5.63;1.92;;;;;;;19.24;67.52;99804.91;6044178;28;20537;-66
2023/07/01 09:22:28;;;;;;;4.87;1.87;;;;;;;19.17;73.88;99809.56;6027255;28;20038;-65
2023/07/01 09:25:29;;;;;;;4.13;1.90;;;;;;;18.83;73.61;99796.69;6017415;28;20030;-65
2023/07/01 09:28:30;;;;;;;10.25;2.10;;;;;;;18.75;73.57;99796.97;6023641;28;20417;-65
2023/07/01 09:31:26;;;;;;;5.45;1.92;;;;;;;18.94;71.07;99804.81;6028880;28;20159;-66
2023/07/01 09:34:22;;;;;;;5.83;2.07;;;;;;;19.26;69.88;99807.38;6042282;28;20133;-66
2023/07/01 09:37:17;;;;;;;5.55;1.55;;;;;;;19.52;65.53;99783.72;6055270;28;20026;-66
2023/07/01 09:40:21;;;;;;;5.63;1.53;;;;;;;19.88;65.85;99790.06;6041152;28;20092;-66
2023/07/01 09:43:19;;;;;;;4.40;1.55;;;;;;;20.41;65.28;99779.34;6033326;28;20276;-66
2023/07/01 09:46:14;;;;;;;4.72;1.60;;;;;;;20.38;62.37;99769.88;6030616;28;20125;-67
2023/07/01 09:49:10;;;;;;;4.63;1.85;;;;;;;20.73;60.47;99776.09;6038483;28;20038;-66
2023/07/01 09:52:06;;;;;;;8.05;1.67;;;;;;;21.03;59.19;99767.84;6049061;28;20046;-67
2023/07/01 09:55:03;;;;;;;3.95;1.60;;;;;;;21.44;58.67;99763.31;6048673;28;20022;-67
2023/07/01 09:57:58;;;;;;;4.13;1.85;;;;;;;21.91;57.25;99760.19;6031711;28;20029;-67
2023/07/01 10:00:54;;;;;;;4.45;1.75;;;;;;;22.07;57.10;99766.69;6030051;28;20037;-67
2023/07/01 10:03:50;;;;;;;4.63;1.83;;;;;;;21.92;55.91;99755.63;6026833;28;20038;-66
2023/07/01 10:06:45;;;;;;;3.42;1.70;;;;;;;22.09;56.31;99756.47;6037120;28;20540;-66
2023/07/01 10:09:44;;;;;;;7.87;2.00;;;;;;;22.06;56.37;99766.94;6040424;28;20030;-67
2023/07/01 10:12:41;;;;;;;4.95;1.88;;;;;;;21.69;57.47;99770.00;6027697;28;20188;-67
2023/07/01 10:15:39;;;;;;;4.82;1.73;;;;;;;21.98;58.12;99751.97;6031022;28;20080;-67
2023/07/01 10:18:35;;;;;;;5.15;1.65;;;;;;;22.56;55.30;99761.56;6037452;28;20034;-67
2023/07/01 10:21:30;;;;;;;8.45;1.88;;;;;;;22.26;54.84;99759.97;6041639;28;20098;-66
2023/07/01 10:24:37;;;;;;;5.13;1.95;;;;;;;21.67;54.65;99776.72;6022739;28;20057;-67
2023/07/01 10:27:42;;;;;;;5.10;1.60;;;;;;;21.19;55.99;99774.41;6037336;28;20128;-67
2023/07/01 10:30:41;;;;;;;4.00;2.15;;;;;;;21.24;57.64;99772.63;6035802;28;20093;-67
2023/07/01 10:33:37;;;;;;;5.22;1.73;;;;;;;21.38;58.77;99781.28;6035639;28;20042;-67
2023/07/01 10:36:36;;;;;;;3.35;1.70;;;;;;;21.32;58.62;99774.97;6035684;28;20088;-67
2023/07/01 10:39:33;;;;;;;3.30;1.70;;;;;;;21.24;57.99;99753.75;6027622;28;20054;-67
2023/07/01 10:42:36;;;;;;;6.80;2.25;;;;;;;21.14;59.52;99758.13;6023331;28;20035;-67
2023/07/01 10:45:31;;;;;;;3.75;1.65;;;;;;;21.44;58.74;99764.16;6011755;28;20026;-67
2023/07/01 10:48:26;;;;;;;4.03;1.90;;;;;;;21.59;59.31;99747.41;6032837;28;20037;-66
2023/07/01 10:51:22;;;;;;;5.93;1.70;;;;;;;21.79;59.07;99755.91;6060320;28;20026;-67
2023/07/01 10:54:31;;;;;;;4.23;1.83;;;;;;;21.92;59.94;99755.63;6033144;28;20030;-68
2023/07/01 10:57:27;;;;;;;3.10;1.30;;;;;;;22.01;58.62;99764.97;6049179;28;20042;-67
2023/07/01 11:00:35;;;;;;;5.00;1.57;;;;;;;21.55;59.42;99775.94;6053285;28;20057;-67
2023/07/01 11:03:33;;;;;;;7.78;1.92;;;;;;;21.07;60.11;99777.13;6045613;28;20269;-67
2023/07/01 11:06:46;;;;;;;2.95;1.55;;;;;;;20.41;63.87;99782.03;6023690;28;20045;-68
2023/07/01 11:09:42;;;;;;;6.10;1.88;;;;;;;20.08;66.00;99780.63;6050535;28;20030;-66
2023/07/01 11:12:38;;;;;;;3.73;1.60;;;;;;;19.75;66.94;99756.09;6044845;28;20033;-66
2023/07/01 11:15:33;;;;;;;5.53;1.90;;;;;;;20.03;66.53;99771.63;6052089;28;20624;-67
2023/07/01 11:18:47;;;;;;;4.18;1.63;;;;;;;19.61;68.77;99757.31;6053026;28;20057;-66
2023/07/01 11:21:43;;;;;;;6.10;1.95;;;;;;;19.40;69.77;99761.34;6052696;28;20026;-67
2023/07/01 11:24:38;;;;;;;4.78;1.90;;;;;;;19.42;70.16;99771.84;6046495;28;20377;-66
2023/07/01 11:27:41;;;;;;;4.28;1.67;;;;;;;19.51;69.61;99768.63;6052426;28;20034;-66
2023/07/01 11:30:36;;;;;;;3.55;1.90;;;;;;;19.49;68.66;99777.97;6052464;28;20425;-66
2023/07/01 11:33:32;;;;;;;5.70;2.10;;;;;;;19.21;70.97;99770.44;6051728;28;20030;-66
2023/07/01 11:36:34;;;;;;;4.23;2.00;;;;;;;18.70;72.55;99749.28;6051863;28;20034;-66
2023/07/01 11:39:30;;;;;;;4.68;1.88;;;;;;;18.50;75.06;99763.94;6045545;28;20103;-67
2023/07/01 11:42:26;;;;;;;5.90;2.13;;;;;;;18.31;75.84;99761.19;6051747;28;20040;-66
2023/07/01 11:45:21;;;;;;;4.63;2.00;;;;;;;18.08;77.08;99758.25;6049945;28;20038;-66
2023/07/01 11:48:28;;;;;;;5.73;2.10;;;;;;;18.20;77.25;99774.50;6057490;28;20351;-66
2023/07/01 11:51:37;;;;;;;5.93;2.15;;;;;;;18.33;76.76;99753.72;6044935;28;20175;-65
2023/07/01 11:54:48;;;;;;;3.47;1.98;;;;;;;18.37;77.17;99770.25;6050973;28;20026;-65
2023/07/01 11:57:43;;;;;;;3.47;2.00;;;;;;;18.48;78.27;99744.56;6021051;28;20521;-66
2023/07/01 12:00:38;;;;;;;4.00;1.90;;;;;;;18.72;77.49;99763.34;6050617;28;20033;-66
2023/07/01 12:03:34;;;;;;;3.63;1.90;;;;;;;18.69;77.62;99749.50;6050727;28;20030;-66
2023/07/01 12:06:29;;;;;;;4.37;2.10;;;;;;;18.75;78.57;99746.75;6038098;28;20269;-66
2023/07/01 12:09:28;;;;;;;4.57;1.80;;;;;;;18.95;76.57;99751.91;6054101;28;20108;-66
2023/07/01 12:12:32;;;;;;;4.38;2.00;;;;;;;19.27;75.80;99768.72;6037219;28;20034;-66
2023/07/01 12:15:28;;;;;;;5.38;1.77;;;;;;;19.33;75.55;99765.09;6043327;28;20453;-66
2023/07/01 12:18:28;;;;;;;4.18;2.00;;;;;;;19.51;73.68;99746.31;6051284;28;20062;-66
2023/07/01 12:21:27;;;;;;;5.10;2.13;;;;;;;19.50;72.16;99744.66;6051097;28;20029;-67
2023/07/01 12:24:24;;;;;;;3.85;2.20;;;;;;;19.55;72.65;99737.53;6050135;28;20045;-66
2023/07/01 12:27:19;;;;;;;4.18;1.73;;;;;;;19.37;73.43;99739.41;6050911;28;20034;-66
2023/07/01 12:30:15;;;;;;;4.17;2.30;;;;;;;19.52;74.38;99750.63;6032941;28;20488;-66
2023/07/01 12:33:10;;;;;;;11.00;2.20;;;;;;;19.83;73.98;99750.41;6050957;28;20018;-66
2023/07/01 12:36:06;;;;;;;3.70;2.00;;;;;;;19.90;75.11;99748.41;6050307;28;20022;-66
2023/07/01 12:39:02;;;;;;;5.85;1.90;;;;;;;20.09;74.59;99760.75;6050450;28;20265;-66
2023/07/01 12:41:58;;;;;;;4.22;1.77;;;;;;;19.85;74.30;99747.47;6050649;28;20053;-65
2023/07/01 12:44:53;;;;;;;4.40;2.20;;;;;;;19.66;75.75;99738.63;6065006;28;20033;-67
2023/07/01 12:47:49;;;;;;;4.50;2.07;;;;;;;19.64;75.79;99748.81;6028617;28;20042;-66
2023/07/01 12:50:44;;;;;;;5.30;2.35;;;;;;;19.70;76.97;99758.66;6050514;28;20024;-66
2023/07/01 12:53:39;;;;;;;4.53;2.07;;;;;;;19.30;81.37;99750.25;6043223;28;20488;-66
2023/07/01 12:56:35;;;;;;;4.27;1.83;;;;;;;18.95;84.32;99741.16;6026234;28;20037;-65
2023/07/01 12:59:30;;;;;;;5.25;2.25;;;;;;;18.66;87.48;99737.34;6032889;28;20120;-66
2023/07/01 13:02:25;;;;;;;3.47;2.00;;;;;;;18.91;87.00;99743.50;6041679;28;20037;-66
2023/07/01 13:05:23;;;;;;;5.88;3.00;;;;;;;19.06;85.69;99747.66;6033023;28;20030;-66
2023/07/01 13:08:18;;;;;;;3.30;2.00;;;;;;;19.23;84.75;99732.56;6050366;28;20025;-66
2023/07/01 13:11:14;;;;;;;4.75;2.30;;;;;;;19.52;84.25;99731.78;6030985;28;20109;-66
2023/07/01 13:14:11;;;;;;;4.82;1.98;;;;;;;19.56;83.19;99733.81;6044762;28;20489;-66
2023/07/01 13:17:07;;;;;;;4.70;2.08;;;;;;;19.91;83.43;99717.78;6050358;28;20037;-66
2023/07/01 13:20:04;;;;;;;4.30;2.40;;;;;;;19.77;84.87;99729.78;6041431;28;20026;-65
2023/07/01 13:23:01;;;;;;;5.82;2.30;;;;;;;19.88;83.90;99715.53;6050081;28;20257;-67
2023/07/01 13:25:56;;;;;;;4.88;2.78;;;;;;;19.77;81.49;99724.41;6026507;28;20378;-66
2023/07/01 13:28:55;;;;;;;4.80;2.03;;;;;;;19.92;82.81;99737.44;6045133;28;20034;-67
2023/07/01 13:31:50;;;;;;;3.88;2.20;;;;;;;19.97;82.66;99721.41;6027089;28;20026;-66
2023/07/01 13:34:46;;;;;;;4.65;2.58;;;;;;;19.64;80.36;99721.91;6032646;28;20352;-66
2023/07/01 13:37:41;;;;;;;6.60;2.10;;;;;;;19.50;81.48;99707.81;6045667;28;20038;-66
2023/07/01 13:40:42;;;;;;;4.80;1.93;;;;;;;19.56;82.13;99720.38;6047327;28;20044;-66
2023/07/01 13:43:37;;;;;;;6.45;2.40;;;;;;;19.43;82.35;99717.03;6044714;28;20045;-66
2023/07/01 13:46:37;;;;;;;5.93;2.20;;;;;;;19.47;82.04;99728.97;6047104;28;20382;-66